sensor_id;sensor_type;location;lat;lon;timestamp;temperature;humidity
9193;DHT22;4631;49.296;10.560;2023-10-09T00:01:49;12.90;99.90
9193;DHT22;4631;49.296;10.560;2023-10-09T00:04:16;13.00;99.90
9193;DHT22;4631;49.296;10.560;2023-10-09T00:06:44;13.10;99.90
9193;DHT22;4631;49.296;10.560;2023-10-09T00:09:12;13.10;99.90
9193;DHT22;4631;49.296;10.560;2023-10-09T00:11:56;13.10;99.90
9193;DHT22;4631;49.296;10.560;2023-10-09T00:14:23;13.10;99.90
9193;DHT22;4631;49.296;10.560;2023-10-09T00:16:50;13.20;99.90
9193;DHT22;4631;49.296;10.560;2023-10-09T00:19:21;13.30;99.90
9193;DHT22;4631;49.296;10.560;2023-10-09T00:21:57;13.20;99.90
9193;DHT22;4631;49.296;10.560;2023-10-09T00:24:26;13.20;99.90
9193;DHT22;4631;49.296;10.560;2023-10-09T00:26:54;13.20;99.90
9193;DHT22;4631;49.296;10.560;2023-10-09T00:29:27;13.20;99.90
9193;DHT22;4631;49.296;10.560;2023-10-09T00:32:00;13.20;99.90
9193;DHT22;4631;49.296;10.560;2023-10-09T00:34:41;13.20;99.90
9193;DHT22;4631;49.296;10.560;2023-10-09T00:37:09;13.20;99.90
9193;DHT22;4631;49.296;10.560;2023-10-09T00:39:41;13.20;99.90
9193;DHT22;4631;49.296;10.560;2023-10-09T00:42:09;13.20;99.90
9193;DHT22;4631;49.296;10.560;2023-10-09T00:44:38;13.30;99.90
9193;DHT22;4631;49.296;10.560;2023-10-09T00:47:07;13.30;99.90
9193;DHT22;4631;49.296;10.560;2023-10-09T00:49:47;13.30;99.90
9193;DHT22;4631;49.296;10.560;2023-10-09T00:52:15;13.40;99.90
9193;DHT22;4631;49.296;10.560;2023-10-09T00:54:51;13.40;99.90
9193;DHT22;4631;49.296;10.560;2023-10-09T00:57:18;13.40;99.90
9193;DHT22;4631;49.296;10.560;2023-10-09T00:59:52;13.40;99.90
9193;DHT22;4631;49.296;10.560;2023-10-09T01:02:25;13.40;99.90
9193;DHT22;4631;49.296;10.560;2023-10-09T01:05:01;13.40;99.90
9193;DHT22;4631;49.296;10.560;2023-10-09T01:07:38;13.40;99.90
9193;DHT22;4631;49.296;10.560;2023-10-09T01:10:06;13.40;99.90
9193;DHT22;4631;49.296;10.560;2023-10-09T01:12:54;13.40;99.90
9193;DHT22;4631;49.296;10.560;2023-10-09T01:15:21;13.40;99.90
9193;DHT22;4631;49.296;10.560;2023-10-09T01:18:02;13.40;99.90
9193;DHT22;4631;49.296;10.560;2023-10-09T01:20:32;13.40;99.90
9193;DHT22;4631;49.296;10.560;2023-10-09T01:23:09;13.40;99.90
9193;DHT22;4631;49.296;10.560;2023-10-09T01:25:36;13.40;99.90
9193;DHT22;4631;49.296;10.560;2023-10-09T01:28:09;13.40;99.90
9193;DHT22;4631;49.296;10.560;2023-10-09T01:30:35;13.40;99.90
9193;DHT22;4631;49.296;10.560;2023-10-09T01:33:07;13.40;99.90
9193;DHT22;4631;49.296;10.560;2023-10-09T01:35:38;13.40;99.90
9193;DHT22;4631;49.296;10.560;2023-10-09T01:38:13;13.40;99.90
9193;DHT22;4631;49.296;10.560;2023-10-09T01:40:42;13.40;99.90
9193;DHT22;4631;49.296;10.560;2023-10-09T01:43:28;13.40;99.90
9193;DHT22;4631;49.296;10.560;2023-10-09T01:45:55;13.40;99.90
9193;DHT22;4631;49.296;10.560;2023-10-09T01:48:42;13.40;99.90
9193;DHT22;4631;49.296;10.560;2023-10-09T01:51:36;13.40;99.90
9193;DHT22;4631;49.296;10.560;2023-10-09T01:54:05;13.40;99.90
9193;DHT22;4631;49.296;10.560;2023-10-09T01:56:32;13.40;99.90
9193;DHT22;4631;49.296;10.560;2023-10-09T01:59:07;13.40;99.90
9193;DHT22;4631;49.296;10.560;2023-10-09T02:01:35;13.40;99.90
9193;DHT22;4631;49.296;10.560;2023-10-09T02:04:06;13.40;99.90
9193;DHT22;4631;49.296;10.560;2023-10-09T02:06:39;13.40;99.90
9193;DHT22;4631;49.296;10.560;2023-10-09T02:09:07;13.30;99.90
9193;DHT22;4631;49.296;10.560;2023-10-09T02:11:45;13.30;99.90
9193;DHT22;4631;49.296;10.560;2023-10-09T02:14:11;13.30;99.90
9193;DHT22;4631;49.296;10.560;2023-10-09T02:16:46;13.30;99.90
9193;DHT22;4631;49.296;10.560;2023-10-09T02:19:28;13.30;99.90
9193;DHT22;4631;49.296;10.560;2023-10-09T02:22:00;13.30;99.90
9193;DHT22;4631;49.296;10.560;2023-10-09T02:24:29;13.30;99.90
9193;DHT22;4631;49.296;10.560;2023-10-09T02:27:13;13.40;99.90
9193;DHT22;4631;49.296;10.560;2023-10-09T02:29:45;13.30;99.90
9193;DHT22;4631;49.296;10.560;2023-10-09T02:32:12;13.40;99.90
9193;DHT22;4631;49.296;10.560;2023-10-09T02:34:51;13.40;99.90
9193;DHT22;4631;49.296;10.560;2023-10-09T02:37:19;13.50;99.90
9193;DHT22;4631;49.296;10.560;2023-10-09T02:39:50;13.50;99.90
9193;DHT22;4631;49.296;10.560;2023-10-09T02:42:18;13.50;99.90
9193;DHT22;4631;49.296;10.560;2023-10-09T02:44:51;13.50;99.90
9193;DHT22;4631;49.296;10.560;2023-10-09T02:47:18;13.50;99.90
9193;DHT22;4631;49.296;10.560;2023-10-09T02:49:50;13.50;99.90
9193;DHT22;4631;49.296;10.560;2023-10-09T02:52:17;13.50;99.90
9193;DHT22;4631;49.296;10.560;2023-10-09T02:54:51;13.40;99.90
9193;DHT22;4631;49.296;10.560;2023-10-09T02:57:26;13.40;99.90
9193;DHT22;4631;49.296;10.560;2023-10-09T02:59:54;13.50;99.90
9193;DHT22;4631;49.296;10.560;2023-10-09T03:02:20;13.50;99.90
9193;DHT22;4631;49.296;10.560;2023-10-09T03:04:49;13.50;99.90
9193;DHT22;4631;49.296;10.560;2023-10-09T03:07:20;13.50;99.90
9193;DHT22;4631;49.296;10.560;2023-10-09T03:09:48;13.50;99.90
9193;DHT22;4631;49.296;10.560;2023-10-09T03:12:17;13.50;99.90
9193;DHT22;4631;49.296;10.560;2023-10-09T03:14:44;13.60;99.90
9193;DHT22;4631;49.296;10.560;2023-10-09T03:17:10;13.50;99.90
9193;DHT22;4631;49.296;10.560;2023-10-09T03:19:37;13.50;99.90
9193;DHT22;4631;49.296;10.560;2023-10-09T03:22:04;13.50;99.90
9193;DHT22;4631;49.296;10.560;2023-10-09T03:24:34;13.50;99.90
9193;DHT22;4631;49.296;10.560;2023-10-09T03:27:01;13.60;99.90
9193;DHT22;4631;49.296;10.560;2023-10-09T03:29:29;13.50;99.90
9193;DHT22;4631;49.296;10.560;2023-10-09T03:31:56;13.60;99.90
9193;DHT22;4631;49.296;10.560;2023-10-09T03:34:23;13.60;99.90
9193;DHT22;4631;49.296;10.560;2023-10-09T03:36:50;13.60;99.90
9193;DHT22;4631;49.296;10.560;2023-10-09T03:39:25;13.50;99.90
9193;DHT22;4631;49.296;10.560;2023-10-09T03:41:59;13.50;99.90
9193;DHT22;4631;49.296;10.560;2023-10-09T03:44:31;13.60;99.90
9193;DHT22;4631;49.296;10.560;2023-10-09T03:47:00;13.60;99.90
9193;DHT22;4631;49.296;10.560;2023-10-09T03:49:28;13.60;99.90
9193;DHT22;4631;49.296;10.560;2023-10-09T03:51:55;13.60;99.90
9193;DHT22;4631;49.296;10.560;2023-10-09T03:54:21;13.60;99.90
9193;DHT22;4631;49.296;10.560;2023-10-09T03:56:49;13.60;99.90
9193;DHT22;4631;49.296;10.560;2023-10-09T03:59:16;13.60;99.90
9193;DHT22;4631;49.296;10.560;2023-10-09T04:01:46;13.60;99.90
9193;DHT22;4631;49.296;10.560;2023-10-09T04:04:14;13.60;99.90
9193;DHT22;4631;49.296;10.560;2023-10-09T04:06:40;13.60;99.90
9193;DHT22;4631;49.296;10.560;2023-10-09T04:09:08;13.50;99.90
9193;DHT22;4631;49.296;10.560;2023-10-09T04:11:53;13.50;99.90
9193;DHT22;4631;49.296;10.560;2023-10-09T04:14:43;13.50;99.90
9193;DHT22;4631;49.296;10.560;2023-10-09T04:17:17;13.40;99.90
9193;DHT22;4631;49.296;10.560;2023-10-09T04:19:59;13.50;99.90
9193;DHT22;4631;49.296;10.560;2023-10-09T04:22:40;13.50;99.90
9193;DHT22;4631;49.296;10.560;2023-10-09T04:25:15;13.40;99.90
9193;DHT22;4631;49.296;10.560;2023-10-09T04:27:51;13.40;99.90
9193;DHT22;4631;49.296;10.560;2023-10-09T04:30:18;13.40;99.90
9193;DHT22;4631;49.296;10.560;2023-10-09T04:32:46;13.30;99.90
9193;DHT22;4631;49.296;10.560;2023-10-09T04:35:15;13.20;99.90
9193;DHT22;4631;49.296;10.560;2023-10-09T04:37:48;13.20;99.90
9193;DHT22;4631;49.296;10.560;2023-10-09T04:40:25;13.20;99.90
9193;DHT22;4631;49.296;10.560;2023-10-09T04:43:06;13.20;99.90
9193;DHT22;4631;49.296;10.560;2023-10-09T04:45:35;13.20;99.90
9193;DHT22;4631;49.296;10.560;2023-10-09T04:48:33;13.20;99.90
9193;DHT22;4631;49.296;10.560;2023-10-09T04:51:03;13.20;99.90
9193;DHT22;4631;49.296;10.560;2023-10-09T04:53:47;13.20;99.90
9193;DHT22;4631;49.296;10.560;2023-10-09T04:56:25;13.10;99.90
9193;DHT22;4631;49.296;10.560;2023-10-09T04:58:57;13.10;99.90
9193;DHT22;4631;49.296;10.560;2023-10-09T05:01:29;13.00;99.90
9193;DHT22;4631;49.296;10.560;2023-10-09T05:04:05;12.90;99.90
9193;DHT22;4631;49.296;10.560;2023-10-09T05:06:41;12.90;99.90
9193;DHT22;4631;49.296;10.560;2023-10-09T05:09:20;12.90;99.90
9193;DHT22;4631;49.296;10.560;2023-10-09T05:11:47;12.80;99.90
9193;DHT22;4631;49.296;10.560;2023-10-09T05:14:19;12.80;99.90
9193;DHT22;4631;49.296;10.560;2023-10-09T05:16:52;12.80;99.90
9193;DHT22;4631;49.296;10.560;2023-10-09T05:19:23;12.80;99.90
9193;DHT22;4631;49.296;10.560;2023-10-09T05:21:59;12.80;99.90
9193;DHT22;4631;49.296;10.560;2023-10-09T05:24:30;12.80;99.90
9193;DHT22;4631;49.296;10.560;2023-10-09T05:27:09;12.80;99.90
9193;DHT22;4631;49.296;10.560;2023-10-09T05:29:43;12.80;99.90
9193;DHT22;4631;49.296;10.560;2023-10-09T05:32:24;12.80;99.90
9193;DHT22;4631;49.296;10.560;2023-10-09T05:34:56;12.80;99.90
9193;DHT22;4631;49.296;10.560;2023-10-09T05:37:40;12.90;99.90
9193;DHT22;4631;49.296;10.560;2023-10-09T05:40:09;12.90;99.90
9193;DHT22;4631;49.296;10.560;2023-10-09T05:42:47;12.90;99.90
9193;DHT22;4631;49.296;10.560;2023-10-09T05:45:23;12.90;99.90
9193;DHT22;4631;49.296;10.560;2023-10-09T05:48:07;12.70;99.90
9193;DHT22;4631;49.296;10.560;2023-10-09T05:50:55;12.70;99.90
9193;DHT22;4631;49.296;10.560;2023-10-09T05:53:57;12.70;99.90
9193;DHT22;4631;49.296;10.560;2023-10-09T05:56:53;12.70;99.90
9193;DHT22;4631;49.296;10.560;2023-10-09T05:59:33;12.80;99.90
9193;DHT22;4631;49.296;10.560;2023-10-09T06:02:17;12.90;99.90
9193;DHT22;4631;49.296;10.560;2023-10-09T06:04:58;13.10;99.90
9193;DHT22;4631;49.296;10.560;2023-10-09T06:07:31;13.20;99.90
9193;DHT22;4631;49.296;10.560;2023-10-09T06:13:30;13.30;99.90
9193;DHT22;4631;49.296;10.560;2023-10-09T06:16:11;13.40;99.90
9193;DHT22;4631;49.296;10.560;2023-10-09T06:18:46;13.50;99.90
9193;DHT22;4631;49.296;10.560;2023-10-09T06:21:20;13.50;99.90
9193;DHT22;4631;49.296;10.560;2023-10-09T06:24:01;13.60;99.90
9193;DHT22;4631;49.296;10.560;2023-10-09T06:26:40;13.60;99.90
9193;DHT22;4631;49.296;10.560;2023-10-09T06:29:16;13.60;99.90
9193;DHT22;4631;49.296;10.560;2023-10-09T06:31:51;13.60;99.90
9193;DHT22;4631;49.296;10.560;2023-10-09T06:34:26;13.60;99.90
9193;DHT22;4631;49.296;10.560;2023-10-09T06:36:57;13.70;99.90
9193;DHT22;4631;49.296;10.560;2023-10-09T06:39:34;13.80;99.90
9193;DHT22;4631;49.296;10.560;2023-10-09T06:42:36;13.80;99.90
9193;DHT22;4631;49.296;10.560;2023-10-09T06:45:27;13.90;99.90
9193;DHT22;4631;49.296;10.560;2023-10-09T06:48:20;14.00;99.90
9193;DHT22;4631;49.296;10.560;2023-10-09T06:51:05;14.10;99.90
9193;DHT22;4631;49.296;10.560;2023-10-09T06:53:38;14.10;99.90
9193;DHT22;4631;49.296;10.560;2023-10-09T06:56:24;14.20;99.90
9193;DHT22;4631;49.296;10.560;2023-10-09T06:59:11;14.30;99.90
9193;DHT22;4631;49.296;10.560;2023-10-09T07:01:41;14.40;99.90
9193;DHT22;4631;49.296;10.560;2023-10-09T07:04:09;14.40;99.90
9193;DHT22;4631;49.296;10.560;2023-10-09T07:06:44;14.50;99.90
9193;DHT22;4631;49.296;10.560;2023-10-09T07:09:22;14.50;99.90
9193;DHT22;4631;49.296;10.560;2023-10-09T07:11:49;14.70;99.90
9193;DHT22;4631;49.296;10.560;2023-10-09T07:14:35;14.70;99.90
9193;DHT22;4631;49.296;10.560;2023-10-09T07:17:19;14.80;99.90
9193;DHT22;4631;49.296;10.560;2023-10-09T07:19:49;14.90;99.90
9193;DHT22;4631;49.296;10.560;2023-10-09T07:22:35;15.00;99.90
9193;DHT22;4631;49.296;10.560;2023-10-09T07:25:18;15.10;99.90
9193;DHT22;4631;49.296;10.560;2023-10-09T07:27:54;15.10;99.90
9193;DHT22;4631;49.296;10.560;2023-10-09T07:30:21;15.20;99.90
9193;DHT22;4631;49.296;10.560;2023-10-09T07:33:04;15.20;99.90
9193;DHT22;4631;49.296;10.560;2023-10-09T07:35:42;15.30;99.90
9193;DHT22;4631;49.296;10.560;2023-10-09T07:38:12;15.30;99.90
9193;DHT22;4631;49.296;10.560;2023-10-09T07:40:40;15.40;99.90
9193;DHT22;4631;49.296;10.560;2023-10-09T07:43:22;15.40;99.90
9193;DHT22;4631;49.296;10.560;2023-10-09T07:45:54;15.50;99.90
9193;DHT22;4631;49.296;10.560;2023-10-09T07:48:35;15.50;99.90
9193;DHT22;4631;49.296;10.560;2023-10-09T07:51:14;15.70;99.90
9193;DHT22;4631;49.296;10.560;2023-10-09T07:53:40;15.80;99.90
9193;DHT22;4631;49.296;10.560;2023-10-09T07:56:10;15.80;99.90
9193;DHT22;4631;49.296;10.560;2023-10-09T07:58:40;15.80;99.90
9193;DHT22;4631;49.296;10.560;2023-10-09T08:04:18;16.00;99.90
9193;DHT22;4631;49.296;10.560;2023-10-09T08:07:02;16.00;99.90
9193;DHT22;4631;49.296;10.560;2023-10-09T08:09:32;16.10;99.90
9193;DHT22;4631;49.296;10.560;2023-10-09T08:12:12;16.20;99.90
9193;DHT22;4631;49.296;10.560;2023-10-09T08:14:57;16.20;99.90
9193;DHT22;4631;49.296;10.560;2023-10-09T08:17:46;16.20;99.90
9193;DHT22;4631;49.296;10.560;2023-10-09T08:20:16;16.20;99.90
9193;DHT22;4631;49.296;10.560;2023-10-09T08:22:43;16.30;99.90
9193;DHT22;4631;49.296;10.560;2023-10-09T08:25:09;16.30;99.90
9193;DHT22;4631;49.296;10.560;2023-10-09T08:27:52;16.40;99.90
9193;DHT22;4631;49.296;10.560;2023-10-09T08:30:22;16.40;99.90
9193;DHT22;4631;49.296;10.560;2023-10-09T08:33:06;16.40;99.90
9193;DHT22;4631;49.296;10.560;2023-10-09T08:35:47;16.50;99.90
9193;DHT22;4631;49.296;10.560;2023-10-09T08:38:14;16.50;99.90
9193;DHT22;4631;49.296;10.560;2023-10-09T08:40:43;16.50;99.90
9193;DHT22;4631;49.296;10.560;2023-10-09T08:43:13;16.60;99.90
9193;DHT22;4631;49.296;10.560;2023-10-09T08:45:41;16.60;99.90
9193;DHT22;4631;49.296;10.560;2023-10-09T08:48:10;16.60;99.90
9193;DHT22;4631;49.296;10.560;2023-10-09T08:50:40;16.70;99.90
9193;DHT22;4631;49.296;10.560;2023-10-09T08:53:07;16.70;99.90
9193;DHT22;4631;49.296;10.560;2023-10-09T08:55:35;16.70;99.90
9193;DHT22;4631;49.296;10.560;2023-10-09T08:58:03;16.70;99.90
9193;DHT22;4631;49.296;10.560;2023-10-09T09:00:36;16.80;99.90
9193;DHT22;4631;49.296;10.560;2023-10-09T09:03:09;16.90;99.90
9193;DHT22;4631;49.296;10.560;2023-10-09T09:05:37;17.00;99.90
9193;DHT22;4631;49.296;10.560;2023-10-09T09:08:04;17.00;99.90
9193;DHT22;4631;49.296;10.560;2023-10-09T09:10:47;17.10;99.90
9193;DHT22;4631;49.296;10.560;2023-10-09T09:13:17;17.20;99.90
9193;DHT22;4631;49.296;10.560;2023-10-09T09:15:46;17.20;99.90
9193;DHT22;4631;49.296;10.560;2023-10-09T09:18:14;17.30;99.90
9193;DHT22;4631;49.296;10.560;2023-10-09T09:20:43;17.30;99.90
9193;DHT22;4631;49.296;10.560;2023-10-09T09:23:12;17.30;99.90
9193;DHT22;4631;49.296;10.560;2023-10-09T09:25:39;17.40;99.90
9193;DHT22;4631;49.296;10.560;2023-10-09T09:28:08;17.40;99.90
9193;DHT22;4631;49.296;10.560;2023-10-09T09:30:38;17.50;99.90
9193;DHT22;4631;49.296;10.560;2023-10-09T09:33:19;17.50;99.90
9193;DHT22;4631;49.296;10.560;2023-10-09T09:35:56;17.60;99.90
9193;DHT22;4631;49.296;10.560;2023-10-09T09:38:25;17.70;99.90
9193;DHT22;4631;49.296;10.560;2023-10-09T09:40:54;17.80;99.90
9193;DHT22;4631;49.296;10.560;2023-10-09T09:43:22;17.90;99.90
9193;DHT22;4631;49.296;10.560;2023-10-09T09:45:51;17.90;99.90
9193;DHT22;4631;49.296;10.560;2023-10-09T09:48:23;18.00;99.90
9193;DHT22;4631;49.296;10.560;2023-10-09T09:50:52;18.10;99.90
9193;DHT22;4631;49.296;10.560;2023-10-09T09:53:19;18.20;99.90
9193;DHT22;4631;49.296;10.560;2023-10-09T09:55:52;18.30;99.90
9193;DHT22;4631;49.296;10.560;2023-10-09T09:58:21;18.40;99.90
9193;DHT22;4631;49.296;10.560;2023-10-09T10:00:50;18.40;99.90
9193;DHT22;4631;49.296;10.560;2023-10-09T10:03:20;18.40;99.90
9193;DHT22;4631;49.296;10.560;2023-10-09T10:05:50;18.40;99.90
9193;DHT22;4631;49.296;10.560;2023-10-09T10:08:17;18.30;99.90
9193;DHT22;4631;49.296;10.560;2023-10-09T10:10:45;18.30;99.90
9193;DHT22;4631;49.296;10.560;2023-10-09T10:13:16;18.30;99.90
9193;DHT22;4631;49.296;10.560;2023-10-09T10:15:58;18.30;99.90
9193;DHT22;4631;49.296;10.560;2023-10-09T10:18:30;18.40;99.90
9193;DHT22;4631;49.296;10.560;2023-10-09T10:21:11;18.40;99.90
9193;DHT22;4631;49.296;10.560;2023-10-09T10:23:41;18.40;99.90
9193;DHT22;4631;49.296;10.560;2023-10-09T10:26:21;18.50;99.90
9193;DHT22;4631;49.296;10.560;2023-10-09T10:31:51;18.80;99.90
9193;DHT22;4631;49.296;10.560;2023-10-09T10:34:19;19.10;99.90
9193;DHT22;4631;49.296;10.560;2023-10-09T10:36:50;19.30;99.90
9193;DHT22;4631;49.296;10.560;2023-10-09T10:39:24;19.40;99.90
9193;DHT22;4631;49.296;10.560;2023-10-09T10:42:08;19.40;99.90
9193;DHT22;4631;49.296;10.560;2023-10-09T10:44:39;19.40;99.90
9193;DHT22;4631;49.296;10.560;2023-10-09T10:47:09;19.40;99.90
9193;DHT22;4631;49.296;10.560;2023-10-09T10:49:48;19.30;99.90
9193;DHT22;4631;49.296;10.560;2023-10-09T10:52:25;19.20;99.90
9193;DHT22;4631;49.296;10.560;2023-10-09T10:55:18;19.10;99.90
9193;DHT22;4631;49.296;10.560;2023-10-09T10:58:14;19.00;99.90
9193;DHT22;4631;49.296;10.560;2023-10-09T11:01:37;19.00;99.90
9193;DHT22;4631;49.296;10.560;2023-10-09T11:04:23;18.90;99.90
9193;DHT22;4631;49.296;10.560;2023-10-09T11:07:07;18.80;99.90
9193;DHT22;4631;49.296;10.560;2023-10-09T11:09:45;18.70;99.90
9193;DHT22;4631;49.296;10.560;2023-10-09T11:12:42;18.70;99.90
9193;DHT22;4631;49.296;10.560;2023-10-09T11:15:11;18.60;99.90
9193;DHT22;4631;49.296;10.560;2023-10-09T11:17:58;18.60;99.90
9193;DHT22;4631;49.296;10.560;2023-10-09T11:20:30;18.60;99.90
9193;DHT22;4631;49.296;10.560;2023-10-09T11:22:58;18.50;99.90
9193;DHT22;4631;49.296;10.560;2023-10-09T11:25:47;18.60;99.90
9193;DHT22;4631;49.296;10.560;2023-10-09T11:28:18;18.60;99.90
9193;DHT22;4631;49.296;10.560;2023-10-09T11:31:08;18.50;99.90
9193;DHT22;4631;49.296;10.560;2023-10-09T11:33:44;18.50;99.90
9193;DHT22;4631;49.296;10.560;2023-10-09T11:36:10;18.60;99.90
9193;DHT22;4631;49.296;10.560;2023-10-09T11:38:37;18.60;99.90
9193;DHT22;4631;49.296;10.560;2023-10-09T11:41:12;18.70;99.90
9193;DHT22;4631;49.296;10.560;2023-10-09T11:43:48;18.70;99.90
9193;DHT22;4631;49.296;10.560;2023-10-09T11:46:22;18.80;99.90
9193;DHT22;4631;49.296;10.560;2023-10-09T11:49:22;18.90;99.90
9193;DHT22;4631;49.296;10.560;2023-10-09T11:52:18;19.00;99.90
9193;DHT22;4631;49.296;10.560;2023-10-09T11:55:24;19.00;99.90
9193;DHT22;4631;49.296;10.560;2023-10-09T11:57:59;19.10;99.90
9193;DHT22;4631;49.296;10.560;2023-10-09T12:00:34;19.10;99.90
9193;DHT22;4631;49.296;10.560;2023-10-09T12:03:11;19.20;99.90
9193;DHT22;4631;49.296;10.560;2023-10-09T12:05:41;19.10;99.90
9193;DHT22;4631;49.296;10.560;2023-10-09T12:08:11;19.10;99.90
9193;DHT22;4631;49.296;10.560;2023-10-09T12:10:40;19.10;99.90
9193;DHT22;4631;49.296;10.560;2023-10-09T12:13:08;19.10;99.90
9193;DHT22;4631;49.296;10.560;2023-10-09T12:15:35;19.20;99.90
9193;DHT22;4631;49.296;10.560;2023-10-09T12:20:13;19.20;99.90
9193;DHT22;4631;49.296;10.560;2023-10-09T12:21:16;19.20;99.90
9193;DHT22;4631;49.296;10.560;2023-10-09T12:23:42;19.30;99.90
9193;DHT22;4631;49.296;10.560;2023-10-09T12:26:12;19.30;99.90
9193;DHT22;4631;49.296;10.560;2023-10-09T12:28:42;19.30;99.90
9193;DHT22;4631;49.296;10.560;2023-10-09T12:31:11;19.30;99.90
9193;DHT22;4631;49.296;10.560;2023-10-09T12:33:40;19.20;99.90
9193;DHT22;4631;49.296;10.560;2023-10-09T12:36:11;19.30;99.90
9193;DHT22;4631;49.296;10.560;2023-10-09T12:38:43;19.40;99.90
9193;DHT22;4631;49.296;10.560;2023-10-09T12:41:11;19.50;99.90
9193;DHT22;4631;49.296;10.560;2023-10-09T12:43:52;19.60;99.90
9193;DHT22;4631;49.296;10.560;2023-10-09T12:46:18;19.70;99.90
9193;DHT22;4631;49.296;10.560;2023-10-09T12:48:48;19.90;99.90
9193;DHT22;4631;49.296;10.560;2023-10-09T12:51:15;20.10;99.90
9193;DHT22;4631;49.296;10.560;2023-10-09T12:53:42;20.20;99.90
9193;DHT22;4631;49.296;10.560;2023-10-09T12:56:09;20.50;99.90
9193;DHT22;4631;49.296;10.560;2023-10-09T12:58:37;20.80;99.90
9193;DHT22;4631;49.296;10.560;2023-10-09T13:01:05;21.00;99.90
9193;DHT22;4631;49.296;10.560;2023-10-09T13:03:36;20.90;99.90
9193;DHT22;4631;49.296;10.560;2023-10-09T13:06:04;20.80;99.90
9193;DHT22;4631;49.296;10.560;2023-10-09T13:08:35;20.70;99.90
9193;DHT22;4631;49.296;10.560;2023-10-09T13:11:06;20.60;99.90
9193;DHT22;4631;49.296;10.560;2023-10-09T13:13:36;20.50;99.90
9193;DHT22;4631;49.296;10.560;2023-10-09T13:16:10;20.50;99.90
9193;DHT22;4631;49.296;10.560;2023-10-09T13:18:48;20.60;99.90
9193;DHT22;4631;49.296;10.560;2023-10-09T13:21:16;20.70;99.90
9193;DHT22;4631;49.296;10.560;2023-10-09T13:23:43;20.70;99.90
9193;DHT22;4631;49.296;10.560;2023-10-09T13:26:12;20.80;99.90
9193;DHT22;4631;49.296;10.560;2023-10-09T13:28:47;20.80;99.90
9193;DHT22;4631;49.296;10.560;2023-10-09T13:31:16;20.80;99.90
9193;DHT22;4631;49.296;10.560;2023-10-09T13:33:43;20.90;99.90
9193;DHT22;4631;49.296;10.560;2023-10-09T13:36:11;21.00;99.90
9193;DHT22;4631;49.296;10.560;2023-10-09T13:38:44;21.20;99.90
9193;DHT22;4631;49.296;10.560;2023-10-09T13:41:11;21.30;99.90
9193;DHT22;4631;49.296;10.560;2023-10-09T13:43:43;21.40;99.90
9193;DHT22;4631;49.296;10.560;2023-10-09T13:46:10;21.50;99.90
9193;DHT22;4631;49.296;10.560;2023-10-09T13:48:40;21.60;99.90
9193;DHT22;4631;49.296;10.560;2023-10-09T13:51:08;21.70;99.90
9193;DHT22;4631;49.296;10.560;2023-10-09T13:53:40;21.60;99.90
9193;DHT22;4631;49.296;10.560;2023-10-09T13:56:10;21.60;99.90
9193;DHT22;4631;49.296;10.560;2023-10-09T13:58:40;21.60;99.90
9193;DHT22;4631;49.296;10.560;2023-10-09T14:01:08;21.50;99.90
9193;DHT22;4631;49.296;10.560;2023-10-09T14:03:35;21.40;99.90
9193;DHT22;4631;49.296;10.560;2023-10-09T14:06:05;21.30;99.90
9193;DHT22;4631;49.296;10.560;2023-10-09T14:08:37;21.30;99.90
9193;DHT22;4631;49.296;10.560;2023-10-09T14:11:07;21.20;99.90
9193;DHT22;4631;49.296;10.560;2023-10-09T14:13:38;21.10;99.90
9193;DHT22;4631;49.296;10.560;2023-10-09T14:16:05;21.10;99.90
9193;DHT22;4631;49.296;10.560;2023-10-09T14:18:41;21.00;99.90
9193;DHT22;4631;49.296;10.560;2023-10-09T14:21:23;21.00;99.90
9193;DHT22;4631;49.296;10.560;2023-10-09T14:23:51;20.90;99.90
9193;DHT22;4631;49.296;10.560;2023-10-09T14:26:20;20.80;99.90
9193;DHT22;4631;49.296;10.560;2023-10-09T14:28:47;20.80;99.90
9193;DHT22;4631;49.296;10.560;2023-10-09T14:31:14;20.80;99.90
9193;DHT22;4631;49.296;10.560;2023-10-09T14:33:47;20.70;99.90
9193;DHT22;4631;49.296;10.560;2023-10-09T14:36:32;20.70;99.90
9193;DHT22;4631;49.296;10.560;2023-10-09T14:38:59;20.70;99.90
9193;DHT22;4631;49.296;10.560;2023-10-09T14:41:26;20.60;99.90
9193;DHT22;4631;49.296;10.560;2023-10-09T14:43:56;20.60;99.90
9193;DHT22;4631;49.296;10.560;2023-10-09T14:46:24;20.60;99.90
9193;DHT22;4631;49.296;10.560;2023-10-09T14:48:54;20.60;99.90
9193;DHT22;4631;49.296;10.560;2023-10-09T14:51:21;20.60;99.90
9193;DHT22;4631;49.296;10.560;2023-10-09T14:54:02;20.60;99.90
9193;DHT22;4631;49.296;10.560;2023-10-09T14:56:43;20.60;99.90
9193;DHT22;4631;49.296;10.560;2023-10-09T14:59:11;20.50;99.90
9193;DHT22;4631;49.296;10.560;2023-10-09T15:01:37;20.50;99.90
9193;DHT22;4631;49.296;10.560;2023-10-09T15:04:07;20.50;99.90
9193;DHT22;4631;49.296;10.560;2023-10-09T15:06:40;20.50;99.90
9193;DHT22;4631;49.296;10.560;2023-10-09T15:09:08;20.40;99.90
9193;DHT22;4631;49.296;10.560;2023-10-09T15:11:34;20.40;99.90
9193;DHT22;4631;49.296;10.560;2023-10-09T15:14:04;20.40;99.90
9193;DHT22;4631;49.296;10.560;2023-10-09T15:16:31;20.40;99.90
9193;DHT22;4631;49.296;10.560;2023-10-09T15:18:58;20.40;99.90
9193;DHT22;4631;49.296;10.560;2023-10-09T15:21:28;20.40;99.90
9193;DHT22;4631;49.296;10.560;2023-10-09T15:23:57;20.40;99.90
9193;DHT22;4631;49.296;10.560;2023-10-09T15:26:25;20.30;99.90
9193;DHT22;4631;49.296;10.560;2023-10-09T15:29:00;20.30;99.90
9193;DHT22;4631;49.296;10.560;2023-10-09T15:31:29;20.30;99.90
9193;DHT22;4631;49.296;10.560;2023-10-09T15:33:56;20.30;99.90
9193;DHT22;4631;49.296;10.560;2023-10-09T15:36:23;20.30;99.90
9193;DHT22;4631;49.296;10.560;2023-10-09T15:38:54;20.30;99.90
9193;DHT22;4631;49.296;10.560;2023-10-09T15:41:26;20.30;99.90
9193;DHT22;4631;49.296;10.560;2023-10-09T15:43:55;20.40;99.90
9193;DHT22;4631;49.296;10.560;2023-10-09T15:46:25;20.30;99.90
9193;DHT22;4631;49.296;10.560;2023-10-09T15:51:48;20.30;99.90
9193;DHT22;4631;49.296;10.560;2023-10-09T15:54:25;20.30;99.90
9193;DHT22;4631;49.296;10.560;2023-10-09T15:57:25;20.20;99.90
9193;DHT22;4631;49.296;10.560;2023-10-09T15:59:52;20.20;99.90
9193;DHT22;4631;49.296;10.560;2023-10-09T16:02:18;20.10;99.90
9193;DHT22;4631;49.296;10.560;2023-10-09T16:04:45;20.10;99.90
9193;DHT22;4631;49.296;10.560;2023-10-09T16:07:12;20.10;99.90
9193;DHT22;4631;49.296;10.560;2023-10-09T16:09:40;20.10;99.90
9193;DHT22;4631;49.296;10.560;2023-10-09T16:12:06;20.10;99.90
9193;DHT22;4631;49.296;10.560;2023-10-09T16:17:30;20.00;99.90
9193;DHT22;4631;49.296;10.560;2023-10-09T16:20:06;19.90;99.90
9193;DHT22;4631;49.296;10.560;2023-10-09T16:22:52;19.90;99.90
9193;DHT22;4631;49.296;10.560;2023-10-09T16:26:24;19.80;99.90
9193;DHT22;4631;49.296;10.560;2023-10-09T16:28:37;19.80;99.90
9193;DHT22;4631;49.296;10.560;2023-10-09T16:31:05;19.70;99.90
9193;DHT22;4631;49.296;10.560;2023-10-09T16:33:40;19.70;99.90
9193;DHT22;4631;49.296;10.560;2023-10-09T16:36:06;19.60;99.90
9193;DHT22;4631;49.296;10.560;2023-10-09T16:38:33;19.60;99.90
9193;DHT22;4631;49.296;10.560;2023-10-09T16:41:03;19.60;99.90